Strona główna
METAR-TAF:

METAR-TAF

Lotnisko :

Port lotniczy Niamey

Niamey, Niger

Szerokość geograficzna: 13-29N, Długość geograficzna: 002-10E, wysokość: 223 m

Aktualna obserwacja pogody

Raport powstał 1 godzina i 0 minut temu, godzina 03:00 UTC
Wiatr 8 kt od południowo-południowy zachód
Temperatura 31°C
Wilgotność 55%
Ciśnienie 1009 hPa
Widzialność 10 km lub więcej
Brak chmur poniżej 1500 m i brak chmur cumulonimbus

METAR: DRRN 150300Z 20008KT CAVOK 31/21 Q1009 NOSIG

czas: 05:00 (04:00 UTC)

Prognoza

Raport powstał 5 godziny i 0 minut temu, godzina 23:00 UTC
Prognoza ważna od 15 godzina 00 UTC do 16 godzina 06 UTC
Wiatr 14 kt od południowy zachód
Widzialność: 8000 m
Prawdopodobieństwo 30% :
Przejściowo
od 15 godzina 15 UTC do 15 godzina 18 UTC
Mało chmury na wysokości 4000 ft, Cumulonimbus.
burza

TAF: DRRN 142300Z 1500/1606 22014KT 8000 NSC PROB30 TEMPO 1515/1518 TS FEW040CB

Obserwacja i prognoza pogody dla ponad 4000 lotnisk (raport METAR i TAF).

Dostępne stacje oznaczono żółtymi i czerwonymi punktami na mapie.

Najedź kursorem aby zobaczyć nazwę stacji.

Kliknij aby zobaczyć obserwacje i prognozy pogody.

Aby zmienić mapę: kliknij na zielony przycisk z czarnym krzyżykiem, aby powiększyć; na zielony przycisk z myślnikiem, aby pomniejszyć; na zielone strzałki, aby przejść do map sąsiednich.


METAR-TAF: